Time;durP1;ratioP1;P1;durP2;ratioP2;P2;SDS_P1;SDS_P2;PMS_P1;PMS_P2;Temp;Humidity;BMP_temperature;BMP_pressure;BME280_temperature;BME280_humidity;BME280_pressure;Samples;Min_cycle;Max_cycle;Signal;HPM_P1;HPM_P2
2020/12/22 00:00:39;;;;;;;32.47;14.23;;;;;;;;;;4952272;29;20055;-84
2020/12/22 00:03:08;;;;;;;29.00;13.02;;;;;;;;;;4952472;29;20043;-83
2020/12/22 00:05:35;;;;;;;41.17;14.30;;;;;;;;;;4952672;29;20834;-85
2020/12/22 00:08:09;;;;;;;36.13;14.55;;;;;;;;;;4952596;29;20051;-85
2020/12/22 00:10:38;;;;;;;39.28;14.50;;;;;;;;;;4952408;29;20051;-85
2020/12/22 00:13:06;;;;;;;35.35;14.07;;;;;;;;;;4950364;29;20673;-85
2020/12/22 00:15:33;;;;;;;30.50;13.85;;;;;;;;;;4952731;29;20067;-85
2020/12/22 00:18:07;;;;;;;36.33;15.55;;;;;;;;;;4953521;29;20047;-85
2020/12/22 00:20:36;;;;;;;36.35;14.63;;;;;;;;;;4954779;28;20047;-86
2020/12/22 00:23:02;;;;;;;35.92;14.60;;;;;;;;;;4964095;28;20670;-86
2020/12/22 00:25:44;;;;;;;33.60;14.55;;;;;;;;;;4957860;29;20044;-83
2020/12/22 00:28:12;;;;;;;39.10;14.52;;;;;;;;;;4957114;29;20122;-83
2020/12/22 00:30:38;;;;;;;37.55;14.98;;;;;;;;;;4972074;28;20156;-85
2020/12/22 00:33:07;;;;;;;37.15;15.32;;;;;;;;;;4971823;28;20051;-85
2020/12/22 00:35:34;;;;;;;34.78;14.82;;;;;;;;;;4957143;28;20051;-86
2020/12/22 00:38:02;;;;;;;37.08;16.15;;;;;;;;;;4963565;28;20485;-85
2020/12/22 00:40:32;;;;;;;40.28;15.25;;;;;;;;;;4963441;28;20055;-86
2020/12/22 00:43:03;;;;;;;35.17;15.02;;;;;;;;;;4963411;28;20077;-85
2020/12/22 00:45:33;;;;;;;34.05;14.88;;;;;;;;;;4955670;29;20135;-85
2020/12/22 00:47:59;;;;;;;36.25;15.10;;;;;;;;;;4957162;29;20583;-85
2020/12/22 00:50:26;;;;;;;35.47;15.73;;;;;;;;;;4972027;28;20051;-85
2020/12/22 00:52:55;;;;;;;37.53;15.07;;;;;;;;;;4971390;28;20484;-86
2020/12/22 00:55:22;;;;;;;36.78;14.23;;;;;;;;;;4970295;28;20058;-85
2020/12/22 00:57:53;;;;;;;32.17;13.27;;;;;;;;;;4952106;28;20062;-85
2020/12/22 01:00:22;;;;;;;31.27;14.48;;;;;;;;;;4951304;28;20047;-86
2020/12/22 01:02:49;;;;;;;37.88;15.10;;;;;;;;;;4956242;29;20047;-86
2020/12/22 01:05:16;;;;;;;33.53;14.93;;;;;;;;;;4955590;28;20047;-86
2020/12/22 01:07:43;;;;;;;30.02;13.77;;;;;;;;;;4955201;28;20058;-86
2020/12/22 01:10:10;;;;;;;29.75;14.00;;;;;;;;;;4955499;29;20481;-86
2020/12/22 01:12:45;;;;;;;32.22;14.57;;;;;;;;;;4956452;29;20051;-85
2020/12/22 01:15:16;;;;;;;34.95;13.82;;;;;;;;;;4971113;28;20055;-86
2020/12/22 01:17:43;;;;;;;30.33;13.65;;;;;;;;;;4955007;29;20472;-86
2020/12/22 01:20:10;;;;;;;32.50;12.52;;;;;;;;;;4954823;28;20083;-86
2020/12/22 01:22:36;;;;;;;30.10;12.35;;;;;;;;;;4955151;29;20047;-86
2020/12/22 01:25:03;;;;;;;32.92;13.73;;;;;;;;;;4955055;28;20047;-85
2020/12/22 01:27:48;;;;;;;31.65;13.68;;;;;;;;;;4954908;28;20497;-85
2020/12/22 01:30:14;;;;;;;31.13;13.75;;;;;;;;;;4969399;28;20579;-83
2020/12/22 01:32:47;;;;;;;30.50;13.25;;;;;;;;;;4953765;28;20106;-84
2020/12/22 01:35:13;;;;;;;30.85;13.73;;;;;;;;;;4954495;29;20187;-83
2020/12/22 01:37:40;;;;;;;31.10;13.05;;;;;;;;;;4954555;29;20106;-84
2020/12/22 01:40:07;;;;;;;34.83;14.95;;;;;;;;;;4956016;29;20394;-84
2020/12/22 01:42:34;;;;;;;28.98;13.57;;;;;;;;;;4954910;29;20138;-84
2020/12/22 01:45:00;;;;;;;31.73;13.70;;;;;;;;;;4954505;29;20118;-83
2020/12/22 01:47:43;;;;;;;36.90;14.13;;;;;;;;;;4954546;29;20105;-84
2020/12/22 01:50:10;;;;;;;31.70;13.38;;;;;;;;;;4955530;29;20098;-83
2020/12/22 01:52:37;;;;;;;33.38;12.93;;;;;;;;;;4955737;29;20078;-84
2020/12/22 01:55:05;;;;;;;36.65;13.57;;;;;;;;;;4955580;28;20110;-83
2020/12/22 01:57:32;;;;;;;26.52;12.60;;;;;;;;;;4955609;29;20086;-83
2020/12/22 02:00:01;;;;;;;31.45;13.85;;;;;;;;;;4954388;29;20075;-83
2020/12/22 02:02:27;;;;;;;34.30;13.60;;;;;;;;;;4954471;29;20047;-82
2020/12/22 02:04:54;;;;;;;31.95;14.30;;;;;;;;;;4954538;29;20081;-83
2020/12/22 02:07:21;;;;;;;43.75;13.88;;;;;;;;;;4949422;29;20039;-83
2020/12/22 02:09:51;;;;;;;33.40;14.13;;;;;;;;;;4953828;28;20055;-81
2020/12/22 02:12:18;;;;;;;31.98;13.45;;;;;;;;;;4953676;29;20130;-82
2020/12/22 02:14:45;;;;;;;34.10;13.40;;;;;;;;;;4969893;28;20188;-82
2020/12/22 02:17:13;;;;;;;30.52;13.25;;;;;;;;;;4954811;29;20071;-81
2020/12/22 02:19:40;;;;;;;36.33;14.13;;;;;;;;;;4953192;29;20111;-81
2020/12/22 02:22:07;;;;;;;27.17;12.65;;;;;;;;;;4952549;29;20454;-81
2020/12/22 02:24:34;;;;;;;31.02;12.60;;;;;;;;;;4952972;29;20083;-81
2020/12/22 02:27:01;;;;;;;29.00;13.20;;;;;;;;;;4953465;29;20047;-81
2020/12/22 02:29:28;;;;;;;30.27;13.45;;;;;;;;;;4961738;28;20098;-81
2020/12/22 02:31:57;;;;;;;30.98;11.90;;;;;;;;;;4954344;29;20755;-82
2020/12/22 02:34:24;;;;;;;32.67;12.63;;;;;;;;;;4953930;28;20090;-82
2020/12/22 02:36:50;;;;;;;34.00;12.70;;;;;;;;;;4953340;29;20085;-83
2020/12/22 02:39:17;;;;;;;26.50;11.73;;;;;;;;;;4955058;29;20114;-83
2020/12/22 02:41:44;;;;;;;33.78;12.77;;;;;;;;;;4954703;29;20082;-84
2020/12/22 02:44:10;;;;;;;32.13;13.30;;;;;;;;;;4953792;28;20047;-83
2020/12/22 02:46:37;;;;;;;27.38;12.40;;;;;;;;;;4953099;29;20636;-82
2020/12/22 02:49:04;;;;;;;27.40;11.50;;;;;;;;;;4954383;29;20500;-82
2020/12/22 02:51:31;;;;;;;34.50;12.25;;;;;;;;;;4953148;28;20106;-82
2020/12/22 02:53:58;;;;;;;35.60;12.23;;;;;;;;;;4954685;28;20055;-83
2020/12/22 02:56:25;;;;;;;24.60;11.35;;;;;;;;;;4953446;28;20102;-83
2020/12/22 02:58:53;;;;;;;28.77;11.63;;;;;;;;;;4952617;28;20725;-83
2020/12/22 03:01:19;;;;;;;24.75;11.45;;;;;;;;;;4949304;29;20059;-83
2020/12/22 03:03:46;;;;;;;31.40;12.07;;;;;;;;;;4949570;28;20500;-83
2020/12/22 03:06:15;;;;;;;35.05;12.00;;;;;;;;;;4953297;28;20044;-84
2020/12/22 03:08:43;;;;;;;26.98;12.27;;;;;;;;;;4952870;29;20460;-83
2020/12/22 03:11:16;;;;;;;31.77;12.13;;;;;;;;;;4953072;29;20074;-83
2020/12/22 03:13:43;;;;;;;32.22;12.07;;;;;;;;;;4952775;29;20059;-83
2020/12/22 03:16:12;;;;;;;33.83;12.85;;;;;;;;;;4954120;28;20594;-84
2020/12/22 03:18:39;;;;;;;29.00;12.32;;;;;;;;;;4953234;29;20055;-85
2020/12/22 03:21:15;;;;;;;27.75;11.38;;;;;;;;;;4952841;29;20114;-84
2020/12/22 03:23:41;;;;;;;26.20;11.00;;;;;;;;;;4953477;29;20091;-83
2020/12/22 03:26:08;;;;;;;27.38;11.65;;;;;;;;;;4953071;29;20532;-84
2020/12/22 03:28:35;;;;;;;25.60;11.00;;;;;;;;;;4952678;29;20536;-83
2020/12/22 03:31:01;;;;;;;28.58;11.75;;;;;;;;;;4953005;29;20055;-84
2020/12/22 03:33:28;;;;;;;23.42;10.77;;;;;;;;;;4952569;29;20083;-84
2020/12/22 03:35:55;;;;;;;25.67;11.13;;;;;;;;;;4954099;29;20102;-84
2020/12/22 03:38:23;;;;;;;23.45;10.80;;;;;;;;;;4952911;28;20138;-84
2020/12/22 03:40:49;;;;;;;26.65;10.35;;;;;;;;;;4952701;28;20044;-84
2020/12/22 03:43:16;;;;;;;25.08;11.30;;;;;;;;;;4953861;28;20057;-85
2020/12/22 03:45:43;;;;;;;25.02;9.52;;;;;;;;;;4953080;29;20104;-85
2020/12/22 03:48:10;;;;;;;23.70;9.70;;;;;;;;;;4952461;28;20067;-84
2020/12/22 03:50:36;;;;;;;22.25;9.35;;;;;;;;;;4952507;29;20106;-84
2020/12/22 03:53:03;;;;;;;22.27;9.13;;;;;;;;;;4968571;28;20681;-84
2020/12/22 03:55:30;;;;;;;21.33;9.23;;;;;;;;;;4954882;28;20133;-85
2020/12/22 03:57:57;;;;;;;24.65;9.40;;;;;;;;;;4956470;29;20071;-84
2020/12/22 04:00:36;;;;;;;25.13;8.90;;;;;;;;;;4956202;29;20047;-84
2020/12/22 04:03:02;;;;;;;18.40;8.20;;;;;;;;;;4949235;29;20460;-82
2020/12/22 04:05:30;;;;;;;18.25;7.32;;;;;;;;;;4956227;29;20134;-83
2020/12/22 04:07:57;;;;;;;25.20;8.10;;;;;;;;;;4956639;28;20086;-84
2020/12/22 04:10:23;;;;;;;20.50;8.35;;;;;;;;;;4957232;29;20445;-84
2020/12/22 04:12:50;;;;;;;18.77;7.78;;;;;;;;;;4956629;29;20055;-84
2020/12/22 04:15:17;;;;;;;16.52;7.53;;;;;;;;;;4958326;29;20044;-84
2020/12/22 04:17:44;;;;;;;17.38;7.43;;;;;;;;;;4956110;29;20039;-84
2020/12/22 04:20:11;;;;;;;15.75;7.30;;;;;;;;;;4956858;29;20736;-83
2020/12/22 04:22:37;;;;;;;21.10;7.85;;;;;;;;;;4955670;29;20252;-85
2020/12/22 04:25:05;;;;;;;16.42;7.05;;;;;;;;;;4957131;29;20567;-84
2020/12/22 04:27:32;;;;;;;14.82;6.60;;;;;;;;;;4968412;28;20106;-85
2020/12/22 04:29:59;;;;;;;15.82;6.68;;;;;;;;;;4956618;29;20043;-85
2020/12/22 04:32:25;;;;;;;15.13;7.00;;;;;;;;;;4955543;29;20051;-84
2020/12/22 04:34:54;;;;;;;17.33;7.28;;;;;;;;;;4954510;28;20424;-84
2020/12/22 04:37:20;;;;;;;15.65;6.82;;;;;;;;;;4949615;28;20044;-85
2020/12/22 04:39:47;;;;;;;17.10;6.35;;;;;;;;;;4947188;29;20075;-86
2020/12/22 04:42:14;;;;;;;14.10;5.93;;;;;;;;;;4955369;29;20051;-86
2020/12/22 04:44:41;;;;;;;12.85;6.05;;;;;;;;;;4956700;29;20106;-86
2020/12/22 04:47:10;;;;;;;11.25;5.53;;;;;;;;;;4955562;29;20098;-85
2020/12/22 04:49:39;;;;;;;11.38;5.90;;;;;;;;;;4956876;28;20054;-85
2020/12/22 04:52:13;;;;;;;16.35;6.80;;;;;;;;;;4956488;28;20047;-85
2020/12/22 04:54:40;;;;;;;16.10;6.55;;;;;;;;;;4971852;28;20051;-86
2020/12/22 04:57:07;;;;;;;13.80;6.30;;;;;;;;;;4971043;28;20051;-86
2020/12/22 04:59:37;;;;;;;15.52;6.32;;;;;;;;;;4955474;29;20051;-86
2020/12/22 05:02:06;;;;;;;12.88;5.78;;;;;;;;;;4954755;29;20481;-85
2020/12/22 05:04:36;;;;;;;14.43;5.95;;;;;;;;;;4956255;29;20050;-86
2020/12/22 05:07:08;;;;;;;13.32;5.75;;;;;;;;;;4954485;28;20452;-86
2020/12/22 05:09:34;;;;;;;11.98;6.25;;;;;;;;;;4955406;29;20082;-87
2020/12/22 05:12:01;;;;;;;13.60;6.45;;;;;;;;;;4955007;29;20051;-86
2020/12/22 05:14:28;;;;;;;13.38;5.35;;;;;;;;;;4970858;28;20489;-86
2020/12/22 05:16:56;;;;;;;18.27;5.95;;;;;;;;;;4953916;28;20149;-85
2020/12/22 05:19:23;;;;;;;12.70;5.65;;;;;;;;;;4936417;29;20056;-86
2020/12/22 05:21:59;;;;;;;12.80;6.03;;;;;;;;;;4935878;29;20048;-84
2020/12/22 05:24:27;;;;;;;15.52;5.53;;;;;;;;;;4936935;29;20485;-83
2020/12/22 05:26:55;;;;;;;13.05;5.90;;;;;;;;;;4936856;29;20107;-84
2020/12/22 05:29:25;;;;;;;15.65;5.65;;;;;;;;;;4949415;28;20055;-84
2020/12/22 05:31:52;;;;;;;14.63;5.68;;;;;;;;;;4954303;29;20505;-86
2020/12/22 05:34:19;;;;;;;14.93;5.28;;;;;;;;;;4954740;29;20078;-85
2020/12/22 05:36:51;;;;;;;10.35;5.50;;;;;;;;;;4955841;29;20744;-84
2020/12/22 05:39:18;;;;;;;10.25;5.25;;;;;;;;;;4955090;29;20531;-84
2020/12/22 05:41:45;;;;;;;12.90;5.57;;;;;;;;;;4954412;29;20059;-84
2020/12/22 05:44:12;;;;;;;14.20;5.80;;;;;;;;;;4954418;29;20441;-84
2020/12/22 05:46:40;;;;;;;13.73;5.20;;;;;;;;;;4954827;29;20051;-83
2020/12/22 05:49:08;;;;;;;13.63;5.57;;;;;;;;;;4954073;29;20075;-83
2020/12/22 05:51:44;;;;;;;11.80;5.50;;;;;;;;;;4955289;29;20051;-83
2020/12/22 05:54:14;;;;;;;11.70;5.35;;;;;;;;;;4970525;28;20062;-84
2020/12/22 05:56:40;;;;;;;11.45;4.80;;;;;;;;;;4956232;28;20192;-83
2020/12/22 05:59:20;;;;;;;18.65;5.35;;;;;;;;;;4955168;29;20492;-85
2020/12/22 06:01:48;;;;;;;10.82;4.72;;;;;;;;;;4969452;28;20051;-78
2020/12/22 06:04:17;;;;;;;9.35;4.40;;;;;;;;;;4943247;28;20109;-78
2020/12/22 06:06:49;;;;;;;16.95;4.82;;;;;;;;;;4951238;28;20047;-78
2020/12/22 06:09:23;;;;;;;14.48;4.22;;;;;;;;;;4954293;28;20125;-83
2020/12/22 06:11:53;;;;;;;12.02;3.67;;;;;;;;;;4952792;28;20504;-82
2020/12/22 06:14:24;;;;;;;10.45;3.40;;;;;;;;;;4955874;28;20070;-80
2020/12/22 06:16:51;;;;;;;9.82;3.40;;;;;;;;;;4950980;29;20058;-83
2020/12/22 06:19:19;;;;;;;13.55;3.60;;;;;;;;;;4950055;28;20063;-83
2020/12/22 06:21:58;;;;;;;11.65;3.50;;;;;;;;;;4970173;28;20047;-83
2020/12/22 06:24:32;;;;;;;6.32;3.00;;;;;;;;;;4956415;28;20122;-85
2020/12/22 06:27:08;;;;;;;18.52;3.03;;;;;;;;;;4970664;28;20160;-83
2020/12/22 06:29:36;;;;;;;11.30;2.80;;;;;;;;;;4954002;28;20047;-82
2020/12/22 06:32:18;;;;;;;9.93;3.08;;;;;;;;;;4953824;28;20047;-82
2020/12/22 06:34:48;;;;;;;22.40;5.43;;;;;;;;;;4957075;28;20079;-81
2020/12/22 06:37:15;;;;;;;14.48;3.80;;;;;;;;;;4968644;28;20054;-83
2020/12/22 06:39:49;;;;;;;4.80;2.20;;;;;;;;;;4954311;28;20054;-82
2020/12/22 06:42:41;;;;;;;9.73;2.70;;;;;;;;;;4954827;28;20504;-82
2020/12/22 06:45:37;;;;;;;5.05;2.55;;;;;;;;;;4946880;28;20055;-81
2020/12/22 06:48:06;;;;;;;4.80;2.10;;;;;;;;;;4946962;28;20110;-81
2020/12/22 06:50:40;;;;;;;5.03;2.10;;;;;;;;;;4964430;28;20903;-82
2020/12/22 06:53:27;;;;;;;6.13;2.13;;;;;;;;;;4960452;28;20103;-82
2020/12/22 06:55:54;;;;;;;5.60;2.28;;;;;;;;;;4959928;28;20542;-82
2020/12/22 06:58:41;;;;;;;8.27;2.20;;;;;;;;;;4972516;28;20085;-82
2020/12/22 07:01:43;;;;;;;5.47;2.72;;;;;;;;;;4973542;28;20082;-82
2020/12/22 07:04:19;;;;;;;9.38;2.88;;;;;;;;;;4936032;29;20044;-82
2020/12/22 07:06:51;;;;;;;6.32;2.53;;;;;;;;;;4966744;28;20139;-82
2020/12/22 07:09:23;;;;;;;4.97;2.67;;;;;;;;;;4972220;28;20054;-82
2020/12/22 07:11:51;;;;;;;10.02;2.83;;;;;;;;;;4972121;28;20054;-83
2020/12/22 07:14:18;;;;;;;7.32;2.90;;;;;;;;;;4971393;28;20055;-82
2020/12/22 07:16:50;;;;;;;7.90;3.35;;;;;;;;;;4965811;28;20066;-82
2020/12/22 07:19:22;;;;;;;6.38;3.10;;;;;;;;;;4951992;28;20062;-83
2020/12/22 07:21:52;;;;;;;5.05;2.55;;;;;;;;;;4966292;28;20047;-82
2020/12/22 07:24:18;;;;;;;7.53;2.95;;;;;;;;;;4978800;28;20529;-83
2020/12/22 07:26:47;;;;;;;5.95;3.13;;;;;;;;;;4973098;28;20551;-83
2020/12/22 07:29:14;;;;;;;7.63;3.60;;;;;;;;;;4971191;28;20053;-83
2020/12/22 07:31:42;;;;;;;9.10;3.15;;;;;;;;;;4971905;28;20475;-84
2020/12/22 07:34:10;;;;;;;5.38;2.80;;;;;;;;;;4973610;28;20046;-86
2020/12/22 07:36:43;;;;;;;6.05;2.70;;;;;;;;;;4968190;28;20106;-86
2020/12/22 07:39:18;;;;;;;7.85;2.78;;;;;;;;;;4972431;28;20125;-86
2020/12/22 07:41:45;;;;;;;5.55;2.72;;;;;;;;;;4965435;28;20048;-83
2020/12/22 07:44:14;;;;;;;6.78;2.72;;;;;;;;;;4953542;28;20054;-82
2020/12/22 07:46:42;;;;;;;5.72;2.53;;;;;;;;;;4949236;28;20059;-83
2020/12/22 07:49:15;;;;;;;4.72;2.20;;;;;;;;;;4969605;28;20082;-82
2020/12/22 07:51:54;;;;;;;7.78;2.72;;;;;;;;;;4954065;29;20051;-83
2020/12/22 07:54:21;;;;;;;4.85;2.45;;;;;;;;;;4968348;28;20139;-83
2020/12/22 07:56:53;;;;;;;5.75;2.40;;;;;;;;;;4968270;28;20564;-84
2020/12/22 08:00:15;;;;;;;7.47;3.88;;;;;;;;;;4967510;28;20055;-83
2020/12/22 08:14:24;;;;;;;;;;;;;;;;;;;;;
2020/12/22 08:21:48;;;;;;;;;;;;;;;;;;;;;
2020/12/22 08:28:12;;;;;;;11.07;5.22;;;;;;;;;;4703402;30;20149;-80
2020/12/22 08:30:48;;;;;;;;;;;;;;;;;;4711237;30;20068;-79
2020/12/22 09:05:10;;;;;;;8.57;4.10;;;;;;;;;;5461626;23;20575;-81
2020/12/22 09:11:01;;;;;;;9.77;4.47;;;;;;;;;;5152778;23;20127;-95
2020/12/22 09:13:44;;;;;;;10.82;4.25;;;;;;;;;;5007944;28;20097;-96
2020/12/22 09:16:23;;;;;;;11.43;4.43;;;;;;;;;;5008430;28;20137;-96
2020/12/22 09:19:12;;;;;;;7.47;4.35;;;;;;;;;;5009426;28;20132;-96
2020/12/22 09:28:58;;;;;;;18.60;4.57;;;;;;;;;;5000941;28;20055;-95
2020/12/22 09:31:48;;;;;;;6.40;3.75;;;;;;;;;;4996133;28;20112;-95
2020/12/22 09:38:05;;;;;;;10.48;4.45;;;;;;;;;;5006999;28;20057;-95
2020/12/22 09:41:06;;;;;;;7.55;4.30;;;;;;;;;;5010446;28;20078;-96
2020/12/22 09:50:18;;;;;;;9.18;4.07;;;;;;;;;;5009138;28;20490;-94
2020/12/22 09:53:00;;;;;;;6.40;3.65;;;;;;;;;;5004063;28;20045;-91
2020/12/22 09:55:35;;;;;;;6.32;3.90;;;;;;;;;;4997375;28;20046;-91
2020/12/22 09:58:35;;;;;;;9.95;4.28;;;;;;;;;;5001161;28;20049;-93
2020/12/22 10:01:08;;;;;;;8.20;4.28;;;;;;;;;;5004787;28;20053;-92
2020/12/22 10:03:56;;;;;;;8.18;3.95;;;;;;;;;;5003932;28;20050;-93
2020/12/22 10:06:29;;;;;;;6.53;3.95;;;;;;;;;;5005565;28;20046;-92
2020/12/22 10:09:14;;;;;;;7.80;3.83;;;;;;;;;;5016606;28;20079;-93
2020/12/22 10:11:48;;;;;;;6.60;3.30;;;;;;;;;;5003772;28;20062;-91
2020/12/22 10:14:17;;;;;;;7.68;4.28;;;;;;;;;;5004054;28;20081;-92
2020/12/22 10:24:07;;;;;;;8.95;3.55;;;;;;;;;;5008400;28;20044;-93
2020/12/22 10:30:02;;;;;;;7.18;3.35;;;;;;;;;;5001142;28;20050;-93
2020/12/22 10:32:45;;;;;;;3.97;2.63;;;;;;;;;;5024158;28;20037;-92
2020/12/22 10:35:17;;;;;;;5.03;2.80;;;;;;;;;;5025035;28;20050;-93
2020/12/22 10:37:50;;;;;;;5.43;2.22;;;;;;;;;;4998171;28;20038;-93
2020/12/22 10:44:03;;;;;;;5.85;2.60;;;;;;;;;;5020490;28;20647;-93
2020/12/22 10:50:35;;;;;;;6.90;2.10;;;;;;;;;;5018950;28;20061;-92
2020/12/22 11:07:16;;;;;;;4.57;1.73;;;;;;;;;;5004241;28;20486;-94
2020/12/22 11:10:00;;;;;;;6.43;2.10;;;;;;;;;;4996420;28;20042;-94
2020/12/22 11:16:04;;;;;;;3.55;1.60;;;;;;;;;;5006671;28;20166;-94
2020/12/22 11:18:37;;;;;;;4.82;1.92;;;;;;;;;;5002385;28;20050;-93
2020/12/22 11:21:10;;;;;;;1.83;1.55;;;;;;;;;;5003452;28;20053;-93
2020/12/22 11:23:45;;;;;;;2.15;1.27;;;;;;;;;;5003044;28;20097;-93
2020/12/22 11:26:19;;;;;;;1.98;1.55;;;;;;;;;;5004088;28;20063;-94
2020/12/22 11:28:50;;;;;;;1.60;1.00;;;;;;;;;;5003442;28;20062;-92
2020/12/22 11:34:27;;;;;;;2.30;1.30;;;;;;;;;;5001497;28;20515;-93
2020/12/22 11:36:55;;;;;;;3.17;1.30;;;;;;;;;;5003971;28;20049;-93
2020/12/22 11:39:34;;;;;;;1.88;1.13;;;;;;;;;;5004042;28;20495;-94
2020/12/22 11:42:05;;;;;;;20.55;2.50;;;;;;;;;;5003162;28;20105;-93
2020/12/22 11:44:34;;;;;;;2.30;1.48;;;;;;;;;;5004247;28;20050;-93
2020/12/22 11:47:13;;;;;;;5.35;1.45;;;;;;;;;;5004628;28;20058;-94
2020/12/22 11:49:45;;;;;;;4.35;1.52;;;;;;;;;;5006032;28;20054;-93
2020/12/22 11:52:16;;;;;;;2.15;1.50;;;;;;;;;;4987966;28;20495;-94
2020/12/22 11:54:48;;;;;;;8.00;2.40;;;;;;;;;;5001674;28;20057;-94
2020/12/22 11:57:18;;;;;;;3.03;2.00;;;;;;;;;;5005496;28;20060;-94
2020/12/22 12:03:14;;;;;;;3.20;1.80;;;;;;;;;;5000095;28;20042;-94
2020/12/22 12:05:52;;;;;;;4.90;1.98;;;;;;;;;;4977493;28;20050;-94
2020/12/22 12:08:58;;;;;;;4.35;2.00;;;;;;;;;;5000241;28;20125;-94
2020/12/22 12:11:25;;;;;;;6.00;2.28;;;;;;;;;;5011489;28;20471;-93
2020/12/22 12:14:12;;;;;;;4.05;2.50;;;;;;;;;;5006385;28;20125;-93
2020/12/22 12:17:02;;;;;;;4.15;2.33;;;;;;;;;;5012323;28;20053;-93
2020/12/22 12:19:33;;;;;;;2.97;2.22;;;;;;;;;;5010866;28;20052;-93
2020/12/22 12:22:03;;;;;;;4.88;2.40;;;;;;;;;;5007109;28;20045;-93
2020/12/22 12:24:44;;;;;;;3.22;2.22;;;;;;;;;;4992933;28;20186;-93
2020/12/22 12:27:11;;;;;;;1.67;1.10;;;;;;;;;;5002342;28;20042;-93
2020/12/22 12:29:39;;;;;;;3.42;1.17;;;;;;;;;;5001787;28;20046;-94
2020/12/22 12:32:29;;;;;;;3.60;1.27;;;;;;;;;;5018380;28;20504;-95
2020/12/22 12:35:04;;;;;;;1.27;1.02;;;;;;;;;;5006899;28;20050;-94
2020/12/22 12:37:32;;;;;;;2.53;1.27;;;;;;;;;;5000457;28;20133;-94
2020/12/22 12:40:00;;;;;;;1.63;1.20;;;;;;;;;;5005798;28;20050;-94
2020/12/22 12:42:30;;;;;;;4.03;1.63;;;;;;;;;;5019905;28;20050;-92
2020/12/22 12:45:01;;;;;;;2.65;1.50;;;;;;;;;;5011654;28;20092;-94
2020/12/22 12:47:31;;;;;;;4.03;1.83;;;;;;;;;;5010847;28;20065;-93
2020/12/22 12:49:58;;;;;;;3.38;1.60;;;;;;;;;;5000209;28;20622;-93
2020/12/22 12:52:26;;;;;;;3.08;1.85;;;;;;;;;;4999854;28;20466;-94
2020/12/22 12:55:29;;;;;;;3.35;2.22;;;;;;;;;;5019997;28;20077;-94
2020/12/22 13:01:41;;;;;;;3.65;2.20;;;;;;;;;;5007326;28;20048;-92
2020/12/22 13:11:11;;;;;;;6.95;3.08;;;;;;;;;;5001746;28;20535;-94
2020/12/22 13:13:45;;;;;;;4.65;2.97;;;;;;;;;;4983018;28;20102;-95
2020/12/22 13:16:21;;;;;;;6.80;3.38;;;;;;;;;;4982593;28;20046;-94
2020/12/22 13:25:48;;;;;;;9.43;4.25;;;;;;;;;;5002605;28;20057;-94
2020/12/22 13:28:16;;;;;;;9.07;4.05;;;;;;;;;;4986372;28;20054;-94
2020/12/22 13:38:15;;;;;;;8.48;3.97;;;;;;;;;;5008670;28;20096;-93
2020/12/22 13:40:53;;;;;;;12.20;4.30;;;;;;;;;;4997001;28;20099;-94
2020/12/22 13:43:22;;;;;;;8.02;3.30;;;;;;;;;;5012031;28;20108;-94
2020/12/22 13:46:13;;;;;;;13.00;2.45;;;;;;;;;;5004190;28;20054;-94
2020/12/22 13:48:51;;;;;;;10.00;3.35;;;;;;;;;;5005123;28;20064;-94
2020/12/22 13:54:53;;;;;;;7.80;1.67;;;;;;;;;;5006801;28;20072;-93
2020/12/22 14:01:00;;;;;;;10.63;2.03;;;;;;;;;;4999878;28;20100;-93
2020/12/22 14:03:50;;;;;;;11.32;1.80;;;;;;;;;;4993327;28;20042;-94
2020/12/22 14:06:48;;;;;;;3.10;0.98;;;;;;;;;;5004064;28;20042;-94
2020/12/22 14:09:20;;;;;;;4.18;1.23;;;;;;;;;;5000543;28;20125;-93
2020/12/22 14:11:50;;;;;;;4.53;0.80;;;;;;;;;;4993039;28;20132;-94
2020/12/22 14:14:21;;;;;;;3.95;0.88;;;;;;;;;;5015072;28;20054;-88
2020/12/22 14:16:50;;;;;;;5.57;1.23;;;;;;;;;;5000345;28;20050;-92
2020/12/22 14:19:34;;;;;;;6.07;1.00;;;;;;;;;;5006905;28;20085;-93
2020/12/22 14:22:03;;;;;;;1.92;0.88;;;;;;;;;;5010681;28;20133;-92
2020/12/22 14:24:30;;;;;;;3.55;0.70;;;;;;;;;;5016010;28;20081;-93
2020/12/22 14:27:14;;;;;;;2.97;0.90;;;;;;;;;;5017038;28;20037;-92
2020/12/22 14:29:49;;;;;;;7.60;0.65;;;;;;;;;;5016153;28;20042;-92
2020/12/22 14:32:17;;;;;;;2.00;0.80;;;;;;;;;;5006766;28;20142;-92
2020/12/22 14:34:44;;;;;;;2.70;1.15;;;;;;;;;;5017573;28;20062;-92
2020/12/22 14:37:11;;;;;;;1.67;0.75;;;;;;;;;;5009118;28;20101;-91
2020/12/22 14:39:57;;;;;;;2.05;1.10;;;;;;;;;;5005985;28;20107;-91
2020/12/22 14:42:34;;;;;;;3.75;0.70;;;;;;;;;;5011862;28;20558;-92
2020/12/22 14:45:04;;;;;;;2.33;0.80;;;;;;;;;;5017559;28;20073;-91
2020/12/22 14:47:31;;;;;;;1.35;0.55;;;;;;;;;;5019790;28;20050;-92
2020/12/22 14:50:09;;;;;;;3.28;0.65;;;;;;;;;;5014210;28;20046;-93
2020/12/22 14:52:43;;;;;;;7.10;0.82;;;;;;;;;;5005601;28;20782;-93
2020/12/22 14:55:18;;;;;;;2.78;0.65;;;;;;;;;;5009062;28;20046;-93
2020/12/22 14:57:47;;;;;;;1.55;0.70;;;;;;;;;;5015774;28;20058;-92
2020/12/22 15:00:15;;;;;;;0.70;0.40;;;;;;;;;;5001120;28;20054;-93
2020/12/22 15:09:48;;;;;;;4.40;0.43;;;;;;;;;;5001479;28;20029;-92
2020/12/22 15:12:24;;;;;;;5.03;0.50;;;;;;;;;;5005626;28;20386;-92
2020/12/22 15:15:30;;;;;;;1.42;0.50;;;;;;;;;;5004236;28;20076;-92
2020/12/22 15:21:25;;;;;;;4.22;0.77;;;;;;;;;;5005184;28;20054;-92
2020/12/22 15:23:57;;;;;;;3.13;0.85;;;;;;;;;;4995609;28;20057;-92
2020/12/22 15:26:25;;;;;;;6.85;1.08;;;;;;;;;;5000409;28;20141;-92
2020/12/22 15:29:12;;;;;;;2.40;0.80;;;;;;;;;;5001104;28;20126;-92
2020/12/22 15:31:39;;;;;;;5.30;0.95;;;;;;;;;;5008605;28;20133;-93
2020/12/22 15:34:07;;;;;;;1.48;0.80;;;;;;;;;;4999582;28;20422;-92
2020/12/22 15:40:20;;;;;;;4.50;0.80;;;;;;;;;;5000555;28;20077;-92
2020/12/22 15:46:16;;;;;;;4.68;0.70;;;;;;;;;;4982784;28;20038;-92
2020/12/22 15:48:54;;;;;;;4.10;1.00;;;;;;;;;;5001249;28;20046;-92
2020/12/22 15:51:39;;;;;;;3.53;0.73;;;;;;;;;;5008922;28;20125;-92
2020/12/22 15:54:17;;;;;;;5.78;1.67;;;;;;;;;;4998140;28;20046;-92
2020/12/22 15:56:45;;;;;;;2.42;1.33;;;;;;;;;;4992015;28;20050;-92
2020/12/22 16:02:41;;;;;;;14.55;8.55;;;;;;;;;;5006023;28;20497;-92
2020/12/22 16:09:04;;;;;;;4.43;1.48;;;;;;;;;;5006347;28;20057;-92
2020/12/22 16:11:44;;;;;;;3.95;1.52;;;;;;;;;;5014848;28;20048;-92
2020/12/22 16:14:18;;;;;;;4.05;1.42;;;;;;;;;;4998316;28;21367;-92
2020/12/22 16:20:24;;;;;;;9.77;2.50;;;;;;;;;;5010394;28;20584;-92
2020/12/22 16:26:20;;;;;;;10.43;1.67;;;;;;;;;;5012708;28;20450;-93
2020/12/22 16:28:49;;;;;;;14.70;3.40;;;;;;;;;;5000001;28;20054;-93
2020/12/22 16:31:18;;;;;;;9.50;1.70;;;;;;;;;;5023492;28;20038;-93
2020/12/22 16:34:01;;;;;;;14.98;1.73;;;;;;;;;;5021453;28;20077;-92
2020/12/22 16:36:47;;;;;;;5.80;1.55;;;;;;;;;;5025632;28;20034;-92
2020/12/22 16:39:32;;;;;;;6.60;1.48;;;;;;;;;;5027321;28;20033;-92
2020/12/22 16:41:59;;;;;;;7.55;1.55;;;;;;;;;;5025108;28;20049;-92
2020/12/22 16:44:27;;;;;;;6.68;1.90;;;;;;;;;;5018941;28;20045;-92
2020/12/22 16:54:02;;;;;;;14.20;1.27;;;;;;;;;;5020104;28;20042;-92
2020/12/22 16:56:30;;;;;;;15.43;1.50;;;;;;;;;;5024371;28;20066;-93
2020/12/22 16:59:00;;;;;;;6.78;1.55;;;;;;;;;;5026591;28;20114;-92
2020/12/22 17:01:30;;;;;;;16.00;1.98;;;;;;;;;;5024820;28;20050;-93
2020/12/22 17:03:59;;;;;;;10.70;1.42;;;;;;;;;;5029066;28;20041;-93
2020/12/22 17:06:36;;;;;;;12.27;1.70;;;;;;;;;;5025761;28;20105;-93
2020/12/22 17:09:15;;;;;;;13.05;2.17;;;;;;;;;;5023392;28;20094;-93
2020/12/22 17:11:42;;;;;;;15.52;2.40;;;;;;;;;;5018763;28;20041;-93
2020/12/22 17:14:19;;;;;;;12.30;1.70;;;;;;;;;;5016816;28;20102;-94
2020/12/22 17:17:10;;;;;;;15.13;1.50;;;;;;;;;;5020059;28;20042;-93
2020/12/22 17:19:39;;;;;;;14.88;2.33;;;;;;;;;;5017697;28;20086;-93
2020/12/22 17:22:10;;;;;;;24.60;1.77;;;;;;;;;;5024132;28;20110;-93
2020/12/22 17:24:40;;;;;;;13.50;1.90;;;;;;;;;;5022470;28;20038;-92
2020/12/22 17:27:12;;;;;;;13.00;1.73;;;;;;;;;;5020376;28;20053;-92
2020/12/22 17:30:08;;;;;;;16.05;2.05;;;;;;;;;;5019907;28;20050;-92
2020/12/22 17:33:06;;;;;;;16.45;2.53;;;;;;;;;;5007235;28;20073;-92
2020/12/22 17:35:59;;;;;;;12.30;2.30;;;;;;;;;;5021439;28;20057;-92
2020/12/22 17:38:34;;;;;;;24.45;2.35;;;;;;;;;;5020250;28;20209;-93
2020/12/22 17:41:05;;;;;;;17.43;2.07;;;;;;;;;;5021146;28;20116;-93
2020/12/22 17:43:36;;;;;;;10.77;1.73;;;;;;;;;;5012395;28;21382;-93
2020/12/22 17:46:12;;;;;;;18.40;1.80;;;;;;;;;;5013973;28;20045;-91
2020/12/22 17:49:04;;;;;;;22.45;1.80;;;;;;;;;;5017832;28;20045;-91
2020/12/22 17:51:41;;;;;;;26.63;4.30;;;;;;;;;;5007363;28;20026;-91
2020/12/22 17:54:10;;;;;;;19.80;3.92;;;;;;;;;;5019151;28;20066;-91
2020/12/22 17:56:38;;;;;;;19.85;3.63;;;;;;;;;;5020633;28;20077;-90
2020/12/22 17:59:20;;;;;;;22.77;5.38;;;;;;;;;;5006154;28;20038;-91
2020/12/22 18:02:17;;;;;;;22.30;5.13;;;;;;;;;;5023099;28;20041;-92
2020/12/22 18:04:47;;;;;;;15.25;2.50;;;;;;;;;;5015057;28;20073;-92
2020/12/22 18:07:34;;;;;;;17.30;2.15;;;;;;;;;;5003437;28;20046;-92
2020/12/22 18:10:01;;;;;;;25.45;5.63;;;;;;;;;;4995028;28;20089;-91